• Join FlightAware (Why Join?)
  • Login
  • US Flag 
05:55AM EDT


 

Airport Tracker/Info


-or-


 

Live Flight TrackerFlight Track Log ✈ CSN6839 ✈ 31-Jan-2014 ✈ ZWWW / URC - ZGGG / CAN

Flight Track Log - Related Links

Times and Time Zones

All times are in EST time to prevent confusion due to time zone crossing. See the CSN6839 flight status page for this flight to view local times or setup timezone preferences in your user account.

Time Position Orientation Groundspeed Altitude Reporting Facility
EST Latitude Longitude Course Direction KTS MPH feet Rate Location/Type
04:12AM 43.8417 87.6005 126° Southeast  Level Estimated
04:13AM 43.7761 87.7265 126° Southeast  Level Estimated
04:14AM 43.7104 87.8522 126° Southeast  Level Estimated
04:15AM 43.6446 87.9777 126° Southeast  Level Estimated
04:16AM 43.5787 88.1028 126° Southeast  Level Estimated
04:17AM 43.5126 88.2277 126° Southeast  Level Estimated
04:18AM 43.4463 88.3523 126° Southeast  Level Estimated
04:19AM 43.3799 88.4766 126° Southeast  Level Estimated
04:20AM 43.3134 88.6007 126° Southeast  Level Estimated
04:21AM 43.2455 88.7269 126° Southeast  Level Estimated
04:22AM 43.1774 88.8528 127° Southeast  Level Estimated
04:23AM 43.1092 88.9784 127° Southeast  Level Estimated
04:24AM 43.0409 89.1038 127° Southeast  Level Estimated
04:25AM 42.9724 89.2289 127° Southeast  Level Estimated
04:26AM 42.9038 89.3537 127° Southeast  Level Estimated
04:27AM 42.8350 89.4782 127° Southeast  Level Estimated
04:28AM 42.7661 89.6024 127° Southeast  Level Estimated
04:29AM 42.6971 89.7264 127° Southeast  Level Estimated
04:30AM 42.6279 89.8501 127° Southeast  Level Estimated
04:31AM 42.5587 89.9735 127° Southeast  Level Estimated
04:32AM 42.4892 90.0966 127° Southeast  Level Estimated
04:33AM 42.4197 90.2195 127° Southeast  Level Estimated
04:34AM 42.3500 90.3421 128° Southeast  Level Estimated
04:35AM 42.2802 90.4644 128° Southeast  Level Estimated
04:36AM 42.2102 90.5864 128° Southeast  Level Estimated
04:37AM 42.1401 90.7082 128° Southeast  Level Estimated
04:38AM 42.0700 90.8297 128° Southeast  Level Estimated
04:39AM 41.9996 90.9510 128° Southeast  Level Estimated
04:40AM 41.9292 91.0719 128° Southeast  Level Estimated
04:41AM 41.8586 91.1926 128° Southeast  Level Estimated
04:42AM 41.7879 91.3131 128° Southeast  Level Estimated
04:43AM 41.7170 91.4333 128° Southeast  Level Estimated
04:44AM 41.6461 91.5532 128° Southeast  Level Estimated
04:45AM 41.5750 91.6728 128° Southeast  Level Estimated
04:46AM 41.5038 91.7922 129° Southeast  Level Estimated
04:47AM 41.4324 91.9113 129° Southeast  Level Estimated
04:48AM 41.3610 92.0302 129° Southeast  Level Estimated
04:49AM 41.2894 92.1488 129° Southeast  Level Estimated
04:50AM 41.2177 92.2671 129° Southeast  Level Estimated
04:51AM 41.1459 92.3852 129° Southeast  Level Estimated
04:52AM 41.0740 92.5030 129° Southeast  Level Estimated
04:53AM 41.0019 92.6206 129° Southeast  Level Estimated
04:54AM 40.9297 92.7379 129° Southeast  Level Estimated
04:55AM 40.8574 92.8549 129° Southeast  Level Estimated
04:56AM 40.7850 92.9717 129° Southeast  Level Estimated
04:57AM 40.7125 93.0883 129° Southeast  Level Estimated
04:58AM 40.6398 93.2045 129° Southeast  Level Estimated
04:59AM 40.5670 93.3206 130° Southeast  Level Estimated
05:00AM 40.4942 93.4363 130° Southeast  Level Estimated
05:01AM 40.4212 93.5519 130° Southeast  Level Estimated
05:02AM 40.3480 93.6672 130° Southeast  Level Estimated
05:03AM 40.2748 93.7822 130° Southeast  Level Estimated
05:04AM 40.2015 93.8970 130° Southeast  Level Estimated
05:05AM 40.1280 94.0115 130° Southeast  Level Estimated
05:06AM 40.0545 94.1258 130° Southeast  Level Estimated
05:07AM 39.9808 94.2398 130° Southeast  Level Estimated
05:08AM 39.9070 94.3536 130° Southeast  Level Estimated
05:09AM 39.8331 94.4671 130° Southeast  Level Estimated
05:10AM 39.7591 94.5805 130° Southeast  Level Estimated
05:11AM 39.6850 94.6935 130° Southeast  Level Estimated
05:12AM 39.6107 94.8063 130° Southeast  Level Estimated
05:13AM 39.5364 94.9189 131° Southeast  Level Estimated
05:14AM 39.4619 95.0312 131° Southeast  Level Estimated
05:15AM 39.3874 95.1433 131° Southeast  Level Estimated
05:16AM 39.3127 95.2552 131° Southeast  Level Estimated
05:17AM 39.2380 95.3668 131° Southeast  Level Estimated
05:18AM 39.1631 95.4781 131° Southeast  Level Estimated
05:19AM 39.0881 95.5893 131° Southeast  Level Estimated
05:20AM 39.0130 95.7002 131° Southeast  Level Estimated
05:21AM 38.9378 95.8109 131° Southeast  Level Estimated
05:22AM 38.8625 95.9213 131° Southeast  Level Estimated
05:23AM 38.7871 96.0315 131° Southeast  Level Estimated
05:24AM 38.7116 96.1414 131° Southeast  Level Estimated
05:25AM 38.6360 96.2512 131° Southeast  Level Estimated
05:26AM 38.5603 96.3607 131° Southeast  Level Estimated
05:27AM 38.4845 96.4699 132° Southeast  Level Estimated
05:28AM 38.4086 96.5790 132° Southeast  Level Estimated
05:29AM 38.3326 96.6878 132° Southeast  Level Estimated
05:30AM 38.2565 96.7964 132° Southeast  Level Estimated
05:31AM 38.1803 96.9047 132° Southeast  Level Estimated
05:32AM 38.1040 97.0129 132° Southeast  Level Estimated
05:33AM 38.0275 97.1208 132° Southeast  Level Estimated
05:34AM 37.9510 97.2284 132° Southeast  Level Estimated
05:35AM 37.8744 97.3359 132° Southeast  Level Estimated
05:36AM 37.7977 97.4431 132° Southeast  Level Estimated
05:37AM 37.7209 97.5501 132° Southeast  Level Estimated
05:38AM 37.6440 97.6569 132° Southeast  Level Estimated
05:39AM 37.5670 97.7635 132° Southeast  Level Estimated
05:40AM 37.4899 97.8698 132° Southeast  Level Estimated
05:41AM 37.4128 97.9760 132° Southeast  Level Estimated
05:42AM 37.3355 98.0819 133° Southeast  Level Estimated
05:43AM 37.2581 98.1876 133° Southeast  Level Estimated
05:44AM 37.1806 98.2930 133° Southeast  Level Estimated
05:45AM 37.1031 98.3983 133° Southeast  Level Estimated
05:46AM 37.0254 98.5033 133° Southeast  Level Estimated
05:47AM 36.9477 98.6082 133° Southeast  Level Estimated
05:48AM 36.8699 98.7128 133° Southeast  Level Estimated
05:49AM 36.7919 98.8172 133° Southeast  Level Estimated
05:50AM 36.7139 98.9214 133° Southeast  Level Estimated
05:51AM 36.6358 99.0254 133° Southeast  Level Estimated
05:52AM 36.5576 99.1291 133° Southeast  Level Estimated
05:53AM 36.4793 99.2327 133° Southeast  Level Estimated
05:54AM 36.4009 99.3360 133° Southeast  Level Estimated
05:55AM 36.3224 99.4392 133° Southeast  Level Estimated
05:56AM 36.2439 99.5421 133° Southeast  Level Estimated
05:57AM 36.1652 99.6448 133° Southeast  Level Estimated
05:58AM 36.0865 99.7473 134° Southeast  Level Estimated
05:59AM 36.0077 99.8496 134° Southeast  Level Estimated
06:00AM 35.9288 99.9518 134° Southeast  Level Estimated
06:01AM 35.8498 100.0537 134° Southeast  Level Estimated
06:02AM 35.7707 100.1554 134° Southeast  Level Estimated
06:03AM 35.6916 100.2569 134° Southeast  Level Estimated
06:04AM 35.6123 100.3582 134° Southeast  Level Estimated
06:05AM 35.5330 100.4593 134° Southeast  Level Estimated
06:06AM 35.4536 100.5602 134° Southeast  Level Estimated
06:07AM 35.3741 100.6609 134° Southeast  Level Estimated
06:08AM 35.2945 100.7614 134° Southeast  Level Estimated
06:09AM 35.2148 100.8617 134° Southeast  Level Estimated
06:10AM 35.1351 100.9618 134° Southeast  Level Estimated
06:11AM 35.0552 101.0617 134° Southeast  Level Estimated
06:12AM 34.9753 101.1614 134° Southeast  Level Estimated
06:13AM 34.8953 101.2609 134° Southeast  Level Estimated
06:14AM 34.8152 101.3602 134° Southeast  Level Estimated
06:15AM 34.7351 101.4594 135° Southeast  Level Estimated
06:16AM 34.6548 101.5583 135° Southeast  Level Estimated
06:17AM 34.5745 101.6571 135° Southeast  Level Estimated
06:18AM 34.4941 101.7556 135° Southeast  Level Estimated
06:19AM 34.4137 101.8540 135° Southeast  Level Estimated
06:20AM 34.3331 101.9522 135° Southeast  Level Estimated
06:21AM 34.2525 102.0501 135° Southeast  Level Estimated
06:22AM 34.1718 102.1479 135° Southeast  Level Estimated
06:23AM 34.0910 102.2456 135° Southeast  Level Estimated
06:24AM 34.0101 102.3430 135° Southeast  Level Estimated
06:25AM 33.9292 102.4402 135° Southeast  Level Estimated
06:26AM 33.8481 102.5373 135° Southeast  Level Estimated
06:27AM 33.7671 102.6342 135° Southeast  Level Estimated
06:28AM 33.6859 102.7309 135° Southeast  Level Estimated
06:29AM 33.6046 102.8274 135° Southeast  Level Estimated
06:30AM 33.5233 102.9237 135° Southeast  Level Estimated
06:31AM 33.4419 103.0199 135° Southeast  Level Estimated
06:32AM 33.3605 103.1158 135° Southeast  Level Estimated
06:33AM 33.2789 103.2116 136° Southeast  Level Estimated
06:34AM 33.1973 103.3072 136° Southeast  Level Estimated
06:35AM 33.1156 103.4027 136° Southeast  Level Estimated
06:36AM 33.0339 103.4979 136° Southeast  Level Estimated
06:37AM 32.9520 103.5930 136° Southeast  Level Estimated
06:38AM 32.8701 103.6879 136° Southeast  Level Estimated
06:39AM 32.7882 103.7826 136° Southeast  Level Estimated
06:40AM 32.7061 103.8772 136° Southeast  Level Estimated
06:41AM 32.6240 103.9715 136° Southeast  Level Estimated
06:42AM 32.5418 104.0657 136° Southeast  Level Estimated
06:43AM 32.4595 104.1598 136° Southeast  Level Estimated
06:44AM 32.3772 104.2536 136° Southeast  Level Estimated
06:45AM 32.2948 104.3473 136° Southeast  Level Estimated
06:46AM 32.2123 104.4408 136° Southeast  Level Estimated
06:47AM 32.1298 104.5342 136° Southeast  Level Estimated
06:48AM 32.0472 104.6274 136° Southeast  Level Estimated
06:49AM 31.9645 104.7204 136° Southeast  Level Estimated
06:50AM 31.8818 104.8132 136° Southeast  Level Estimated
06:51AM 31.7990 104.9059 136° Southeast  Level Estimated
06:52AM 31.7161 104.9984 136° Southeast  Level Estimated
06:53AM 31.6332 105.0908 137° Southeast  Level Estimated
06:54AM 31.5502 105.1829 137° Southeast  Level Estimated
06:55AM 31.4671 105.2750 137° Southeast  Level Estimated
06:56AM 31.3840 105.3668 137° Southeast  Level Estimated
06:57AM 31.3008 105.4585 137° Southeast  Level Estimated
06:58AM 31.2175 105.5500 137° Southeast  Level Estimated
06:59AM 31.1342 105.6414 137° Southeast  Level Estimated
07:00AM 31.0508 105.7326 137° Southeast  Level Estimated
07:01AM 30.9673 105.8237 137° Southeast  Level Estimated
07:02AM 30.8838 105.9146 137° Southeast  Level Estimated
07:03AM 30.8002 106.0053 137° Southeast  Level Estimated
07:04AM 30.7165 106.0958 137° Southeast  Level Estimated
07:05AM 30.6328 106.1863 137° Southeast  Level Estimated
07:06AM 30.5490 106.2765 137° Southeast  Level Estimated
07:07AM 30.4652 106.3666 137° Southeast  Level Estimated
07:08AM 30.3813 106.4566 137° Southeast  Level Estimated
07:09AM 30.2973 106.5464 137° Southeast  Level Estimated
07:10AM 30.2133 106.6360 137° Southeast  Level Estimated
07:11AM 30.1292 106.7255 137° Southeast  Level Estimated
07:12AM 30.0451 106.8148 137° Southeast  Level Estimated
07:13AM 29.9609 106.9040 137° Southeast  Level Estimated
07:14AM 29.8766 106.9930 137° Southeast  Level Estimated
07:15AM 29.7923 107.0819 138° Southeast  Level Estimated
07:16AM 29.7079 107.1707 138° Southeast  Level Estimated
07:17AM 29.6235 107.2592 138° Southeast  Level Estimated
07:18AM 29.5390 107.3477 138° Southeast  Level Estimated
07:19AM 29.4544 107.4360 138° Southeast  Level Estimated
07:20AM 29.3698 107.5241 138° Southeast  Level Estimated
07:21AM 29.2851 107.6121 138° Southeast  Level Estimated
07:22AM 29.2004 107.7000 138° Southeast  Level Estimated
07:23AM 29.1156 107.7877 138° Southeast  Level Estimated
07:24AM 29.0308 107.8752 138° Southeast  Level Estimated
07:25AM 28.9459 107.9626 138° Southeast  Level Estimated
07:26AM 28.8609 108.0499 138° Southeast  Level Estimated
07:27AM 28.7759 108.1370 138° Southeast  Level Estimated
07:28AM 28.6908 108.2240 138° Southeast  Level Estimated
07:29AM 28.6057 108.3109 138° Southeast  Level Estimated
07:30AM 28.5205 108.3976 138° Southeast  Level Estimated
07:31AM 28.4353 108.4841 138° Southeast  Level Estimated
07:32AM 28.3500 108.5706 138° Southeast  Level Estimated
07:33AM 28.2646 108.6569 138° Southeast  Level Estimated
07:34AM 28.1792 108.7430 138° Southeast  Level Estimated
07:35AM 28.0938 108.8290 138° Southeast  Level Estimated
07:36AM 28.0082 108.9149 138° Southeast  Level Estimated
07:37AM 27.9227 109.0006 138° Southeast  Level Estimated
07:38AM 27.8371 109.0862 139° Southeast  Level Estimated
07:39AM 27.7514 109.1717 139° Southeast  Level Estimated
07:40AM 27.6657 109.2570 139° Southeast  Level Estimated
07:41AM 27.5799 109.3422 139° Southeast  Level Estimated
07:42AM 27.4941 109.4273 139° Southeast  Level Estimated
07:43AM 27.4082 109.5122 139° Southeast  Level Estimated
07:44AM 27.3223 109.5970 139° Southeast  Level Estimated
07:45AM 27.2363 109.6817 139° Southeast  Level Estimated
07:46AM 27.1503 109.7662 139° Southeast  Level Estimated
07:47AM 27.0642 109.8506 139° Southeast  Level Estimated
07:48AM 26.9781 109.9349 139° Southeast  Level Estimated
07:49AM 26.8919 110.0191 139° Southeast  Level Estimated
07:50AM 26.8056 110.1031 139° Southeast  Level Estimated
07:51AM 26.7194 110.1870 139° Southeast  Level Estimated
07:52AM 26.6330 110.2708 139° Southeast  Level Estimated
07:53AM 26.5466 110.3544 139° Southeast  Level Estimated
07:54AM 26.4602 110.4379 139° Southeast  Level Estimated
07:55AM 26.3737 110.5213 139° Southeast  Level Estimated
07:56AM 26.2872 110.6046 139° Southeast  Level Estimated
07:57AM 26.2006 110.6877 139° Southeast  Level Estimated
07:58AM 26.1140 110.7707 139° Southeast  Level Estimated
07:59AM 26.0274 110.8536 139° Southeast  Level Estimated
08:00AM 25.9407 110.9364 139° Southeast  Level Estimated
08:01AM 25.8539 111.0190 139° Southeast  Level Estimated
08:02AM 25.7671 111.1016 139° Southeast  Level Estimated
08:03AM 25.6802 111.1840 139° Southeast  Level Estimated
08:04AM 25.5933 111.2663 139° Southeast  Level Estimated
08:05AM 25.5064 111.3484 140° Southeast  Level Estimated
08:06AM 25.4194 111.4305 140° Southeast  Level Estimated
08:07AM 25.3323 111.5124 140° Southeast  Level Estimated
08:08AM 25.2453 111.5942 140° Southeast  Level Estimated
08:09AM 25.1581 111.6759 140° Southeast  Level Estimated
08:10AM 25.0710 111.7575 140° Southeast  Level Estimated
08:11AM 24.9837 111.8390 140° Southeast  Level Estimated
08:12AM 24.8965 111.9203 140° Southeast  Level Estimated
08:13AM 24.8092 112.0015 140° Southeast  Level Estimated
08:14AM 24.7218 112.0827 140° Southeast  Level Estimated
08:15AM 24.6344 112.1637 140° Southeast  Level Estimated
08:16AM 24.5470 112.2446 140° Southeast  Level Estimated
08:17AM 24.4595 112.3253 140° Southeast  Level Estimated
08:18AM 24.3720 112.4060 140° Southeast  Level Estimated
08:19AM 24.2844 112.4866 140° Southeast  Level Estimated
08:20AM 24.1968 112.5670 140° Southeast  Level Estimated
08:21AM 24.1092 112.6473 140° Southeast  Level Estimated
08:22AM 24.0215 112.7276 140° Southeast  Level Estimated
08:23AM 23.9338 112.8077 140° Southeast  Level Estimated
08:24AM 23.8460 112.8877 140° Southeast  Level Estimated
08:25AM 23.7582 112.9676 140° Southeast  Level Estimated
08:26AM 23.6703 113.0474 140° Southeast  Level Estimated
08:27AM 23.5824 113.1271 140° Southeast  Level Estimated
08:28AM 23.4945 113.2066 140° Southeast  Level Estimated
08:29AM 23.4065 113.2861 140° Southeast  Level Estimated
08:30AM 23.3924 113.2988 140° Southeast  Level Estimated
08:31AM 23.3924 113.2988 223° Southwest  Level Estimated
08:32AM 23.3924 113.2988 223° Southwest  Level Estimated
08:33AM 23.3924 113.2988 223° Southwest  Level Estimated
08:34AM 23.3924 113.2988 223° Southwest  Level Estimated
08:35AM 23.3924 113.2988 223° Southwest  Level Estimated
08:36AM 23.3924 113.2988 223° Southwest  Level Estimated
08:37AM 23.3924 113.2988 223° Southwest  Level Estimated
08:38AM 23.3924 113.2988 223° Southwest  Level Estimated
08:39AM 23.3924 113.2988 223° Southwest  Level Estimated
08:40AM 23.3924 113.2988 223° Southwest  Level Estimated
08:41AM 23.3924 113.2988 223° Southwest  Level Estimated
08:42AM 23.3924 113.2988 223° Southwest  Level Estimated
08:43AM 23.3924 113.2988 223° Southwest  Level Estimated
08:44AM 23.3924 113.2988 223° Southwest  Level Estimated
08:45AM 23.3924 113.2988 223° Southwest  Level Estimated